Dennis, MA

6:29 PM EDT on September 22, 2014 (GMT -0400)
Chatham Municipal | Change Station
CLOSE
Current Station
Airport
Location: Chatham,
Elevation: 66 ft
Nearby Weather Stations

Elev 66 ft 41.69 °N, 69.99 °W | Updated 37 minutes ago

Clear
Clear
70 °F
Feels Like 70 °F
N
7
Wind Variable Wind from West

Today
High -- | Low -- °F
--% Chance of Precip.
Yesterday
High -- | Low -- °F
Precip. -- in
6:28 AM 6:38 PM
Waning Crescent, 2% visible
Pressure 29.86 in
Visibility 10.0 miles
Clouds Clear
Dew Point 44 °F
Humidity 39%
Rainfall 0.00 in
Snow Depth Not available.
UV 0 out of 12
Pollen 4.10 out of 12
Ozone Good
Flu Activity Not available.
METAR KCQX 222152Z AUTO 26006KT 10SM CLR 21/07 A2986 RMK AO2 SLP112 T02110067

More Conditions Fewer Conditions

Pressure 29.86 in
Visibility 10.0 miles
Clouds Clear
Dew Point 44 °F
Humidity 39%
Rainfall 0.00 in
Snow Depth Not available.
UV 0 out of 12
Pollen 4.10 out of 12
Ozone Good
Flu Activity Not available.
METAR KCQX 222152Z AUTO 26006KT 10SM CLR 21/07 A2986 RMK AO2 SLP112 T02110067

More Conditions Fewer Conditions

10-Day Weather Forecast

Almanac

Astronomy

Sep. 22, 2014 Rise Set
Actual Time 6:28 AM EDT 6:38 PM EDT
Civil Twilight 6:00 AM EDT 7:05 PM EDT
Nautical Twilight 5:27 AM EDT 7:38 PM EDT
Astronomical Twilight 4:54 AM EDT 8:11 PM EDT
Moon 4:52 AM EDT 5:44 PM EDT
Length of Visible Light 13h 05m
Length of Day
12h 09m
Tomorrow will be 2m 48s shorter.
Waning Crescent, 2% of the Moon is Illuminated
Today
Waning Crescent
Sep 24
New
Oct 1
First Quarter
Oct 8
Full
Oct 15
Last Quarter

Today's Extremes

State Highs State Lows

Community

WunderPhotos

Upload Photos

1,755,541 photos uploaded!

Nearby

Air Quality

  Air Quality AQ Index Pollutant
Yesterday Good
OZONE
Current Good
OZONE
Monday Good
PM2.5
Monday Good
OZONE
Tuesday Good
PM2.5
Tuesday Good
OZONE

Snow Depth

Station Depth Elevation
No new snow has been reported.

Earthquake Activity

City Distance Mag. Time & Date
No recent earthquake activity has been reported nearby.
Minimum magnitude displayed is 2.5.

Coastal Water Temperatures

Place Temperature
Woods Hole, MA 69.1 °F
Nantucket Island, MA 69.1 °F
Boston, MA 63.0 °F
Fall River, MA 70.0 °F

Nearby Weather Stations